createdAt,value
2022-12-28T00:00:12.747Z,87.64
2022-12-28T00:02:40.813Z,88.78
2022-12-28T00:05:10.974Z,88.99
2022-12-28T00:07:39.195Z,88.13
2022-12-28T00:10:08.003Z,87.85
2022-12-28T00:12:35.913Z,87.78
2022-12-28T00:15:04.011Z,87.08
2022-12-28T00:17:31.979Z,87.39
2022-12-28T00:20:00.425Z,89.67
2022-12-28T00:22:29.903Z,89.80
2022-12-28T00:24:57.828Z,90.84
2022-12-28T00:27:25.888Z,89.42
2022-12-28T00:29:53.923Z,89.61
2022-12-28T00:32:22.197Z,91.51
2022-12-28T00:34:50.122Z,90.65
2022-12-28T00:37:18.109Z,90.47
2022-12-28T00:39:47.413Z,90.23
2022-12-28T00:42:16.244Z,89.52
2022-12-28T00:44:45.113Z,88.00
2022-12-28T00:47:12.982Z,87.70
2022-12-28T00:49:41.031Z,88.02
2022-12-28T00:52:09.223Z,87.58
2022-12-28T00:54:37.063Z,87.73
2022-12-28T00:57:06.433Z,86.67
2022-12-28T00:59:37.020Z,86.29
2022-12-28T01:02:04.982Z,85.86
2022-12-28T01:04:32.853Z,86.25
2022-12-28T01:07:00.789Z,85.98
2022-12-28T01:09:28.738Z,85.29
2022-12-28T01:11:56.638Z,84.73
2022-12-28T01:14:26.226Z,85.00
2022-12-28T01:16:54.292Z,84.71
2022-12-28T01:19:23.763Z,84.73
2022-12-28T01:21:52.600Z,85.82
2022-12-28T01:24:20.629Z,86.07
2022-12-28T01:26:48.405Z,85.97
2022-12-28T01:29:16.483Z,86.47
2022-12-28T01:31:45.793Z,86.23
2022-12-28T01:34:13.987Z,86.61
2022-12-28T01:36:41.920Z,86.11
2022-12-28T01:39:11.181Z,85.95
2022-12-28T01:41:41.583Z,86.62
2022-12-28T01:44:43.388Z,86.42
2022-12-28T01:47:18.346Z,85.88
2022-12-28T01:49:59.482Z,86.29
2022-12-28T01:52:33.457Z,85.96
2022-12-28T01:55:07.116Z,84.59
2022-12-28T01:57:40.185Z,84.69
2022-12-28T02:00:11.996Z,84.61
2022-12-28T02:02:52.046Z,84.35
2022-12-28T02:05:25.332Z,83.94
2022-12-28T02:07:58.446Z,84.13
2022-12-28T02:10:42.370Z,83.82
2022-12-28T02:13:14.509Z,84.38
2022-12-28T02:15:42.465Z,84.41
2022-12-28T02:18:12.909Z,85.35
2022-12-28T02:20:53.962Z,86.24
2022-12-28T02:23:50.456Z,86.13
2022-12-28T02:26:44.564Z,85.33
2022-12-28T02:29:30.915Z,86.44
2022-12-28T02:32:10.409Z,86.62
2022-12-28T02:34:46.885Z,86.45
2022-12-28T02:37:20.297Z,86.04
2022-12-28T02:39:54.152Z,85.19
2022-12-28T02:42:24.597Z,85.19
2022-12-28T02:45:25.645Z,85.02
2022-12-28T02:48:11.923Z,85.22
2022-12-28T02:50:49.966Z,84.96
2022-12-28T02:53:43.357Z,85.00
2022-12-28T02:56:23.009Z,84.88
2022-12-28T02:59:15.544Z,83.39
2022-12-28T03:02:00.869Z,82.30
2022-12-28T03:04:42.713Z,83.46
2022-12-28T03:07:35.462Z,83.44
2022-12-28T03:10:13.393Z,83.06
2022-12-28T03:12:48.686Z,82.18
2022-12-28T03:15:29.809Z,81.72
2022-12-28T03:18:24.590Z,82.34
2022-12-28T03:21:13.111Z,82.88
2022-12-28T03:24:01.387Z,82.54
2022-12-28T03:26:51.960Z,82.33
2022-12-28T03:29:40.389Z,81.54
2022-12-28T03:32:09.709Z,82.29
2022-12-28T03:34:41.606Z,82.26
2022-12-28T03:37:18.450Z,81.83
2022-12-28T03:39:52.461Z,82.00
2022-12-28T03:42:45.975Z,82.64
2022-12-28T03:45:45.297Z,83.08
2022-12-28T03:48:11.457Z,82.68
2022-12-28T03:50:44.059Z,82.41
2022-12-28T03:53:12.194Z,83.57
2022-12-28T03:55:43.272Z,83.33
2022-12-28T03:58:11.697Z,83.67
2022-12-28T04:04:52.214Z,82.77
2022-12-28T04:07:21.650Z,83.29
2022-12-28T04:09:51.143Z,82.73
2022-12-28T04:12:19.993Z,82.75
2022-12-28T04:15:07.603Z,82.85
2022-12-28T04:17:35.905Z,82.75
2022-12-28T04:20:07.423Z,82.24
2022-12-28T04:22:39.697Z,82.56
2022-12-28T04:25:08.059Z,82.00
2022-12-28T04:27:37.933Z,82.02
2022-12-28T04:30:14.122Z,83.02
2022-12-28T04:32:42.202Z,83.24
2022-12-28T04:35:14.253Z,82.88
2022-12-28T04:37:50.488Z,83.18
2022-12-28T04:40:18.548Z,82.07
2022-12-28T04:42:46.382Z,82.54
2022-12-28T04:45:18.385Z,82.30
2022-12-28T04:47:49.923Z,81.76
2022-12-28T04:50:17.880Z,82.49
2022-12-28T04:52:47.993Z,82.78
2022-12-28T04:55:31.533Z,82.50
2022-12-28T04:58:01.461Z,82.19
2022-12-28T05:00:31.712Z,81.88
2022-12-28T05:03:02.395Z,80.32
2022-12-28T05:05:33.186Z,79.64
2022-12-28T05:08:02.038Z,79.52
2022-12-28T05:10:33.513Z,79.48
2022-12-28T05:13:01.397Z,79.11
2022-12-28T05:15:29.186Z,78.76
2022-12-28T05:17:57.181Z,78.94
2022-12-28T05:20:25.034Z,78.90
2022-12-28T05:22:54.944Z,78.37
2022-12-28T05:25:22.861Z,78.15
2022-12-28T05:27:52.071Z,77.80
2022-12-28T05:30:19.899Z,77.96
2022-12-28T05:32:47.759Z,77.59
2022-12-28T05:35:15.647Z,77.83
2022-12-28T05:37:43.563Z,78.47
2022-12-28T05:40:12.109Z,77.83
2022-12-28T05:42:39.957Z,77.95
2022-12-28T05:45:09.798Z,77.30
2022-12-28T05:47:37.610Z,77.60
2022-12-28T05:50:06.184Z,77.67
2022-12-28T05:52:38.565Z,77.30
2022-12-28T05:55:07.800Z,77.03
2022-12-28T05:57:35.576Z,77.56
2022-12-28T06:00:03.751Z,77.45
2022-12-28T06:02:40.966Z,77.12
2022-12-28T06:05:09.833Z,76.78
2022-12-28T06:07:37.791Z,76.92
2022-12-28T06:10:06.347Z,76.63
2022-12-28T06:12:34.112Z,77.54
2022-12-28T06:15:01.873Z,76.26
2022-12-28T06:17:29.688Z,76.32
2022-12-28T06:19:58.853Z,75.95
2022-12-28T06:22:26.730Z,76.22
2022-12-28T06:24:54.527Z,76.16
2022-12-28T06:27:22.349Z,76.30
2022-12-28T06:29:51.175Z,76.93
2022-12-28T06:32:19.009Z,76.73
2022-12-28T06:34:46.843Z,76.78
2022-12-28T06:37:15.965Z,76.92
2022-12-28T06:39:43.803Z,76.62
2022-12-28T06:42:11.743Z,76.66
2022-12-28T06:44:44.505Z,76.94
2022-12-28T06:47:13.344Z,77.19
2022-12-28T06:49:41.224Z,76.73
2022-12-28T06:52:09.077Z,76.97
2022-12-28T06:54:38.291Z,76.63
2022-12-28T06:57:06.140Z,76.96
2022-12-28T06:59:34.001Z,77.25
2022-12-28T07:02:02.086Z,77.11
2022-12-28T07:04:29.993Z,77.01
2022-12-28T07:06:57.937Z,77.18
2022-12-28T07:09:25.826Z,76.76
2022-12-28T07:11:55.163Z,76.93
2022-12-28T07:14:23.041Z,76.87
2022-12-28T07:16:51.046Z,77.27
2022-12-28T07:19:18.926Z,77.29
2022-12-28T07:21:46.767Z,77.02
2022-12-28T07:24:14.832Z,77.05
2022-12-28T07:26:43.261Z,77.05
2022-12-28T07:29:12.513Z,77.04
2022-12-28T07:31:45.835Z,76.52
2022-12-28T07:34:14.955Z,76.34
2022-12-28T07:36:42.843Z,76.78
2022-12-28T07:39:10.772Z,76.47
2022-12-28T07:41:38.661Z,75.99
2022-12-28T07:44:07.016Z,75.40
2022-12-28T07:46:38.044Z,75.67
2022-12-28T07:49:06.187Z,76.33
2022-12-28T07:51:36.051Z,76.10
2022-12-28T07:54:05.311Z,75.86
2022-12-28T07:59:02.653Z,75.83
2022-12-28T08:01:34.939Z,75.61
2022-12-28T08:04:06.277Z,75.55
2022-12-28T08:06:36.489Z,75.42
2022-12-28T08:09:06.523Z,75.52
2022-12-28T08:11:36.928Z,75.85
2022-12-28T08:14:06.030Z,75.09
2022-12-28T08:16:38.785Z,75.82
2022-12-28T08:19:09.395Z,75.28
2022-12-28T08:21:38.577Z,75.02
2022-12-28T08:24:07.525Z,75.11
2022-12-28T08:26:38.525Z,74.88
2022-12-28T08:29:09.793Z,74.68
2022-12-28T08:31:39.874Z,74.57
2022-12-28T08:34:15.221Z,74.20
2022-12-28T08:36:43.218Z,73.99
2022-12-28T08:39:11.188Z,74.32
2022-12-28T08:41:39.172Z,74.38
2022-12-28T08:44:07.678Z,74.25
2022-12-28T08:46:40.376Z,73.47
2022-12-28T08:49:08.648Z,73.62
2022-12-28T08:51:42.393Z,73.45
2022-12-28T08:54:11.468Z,72.91
2022-12-28T08:56:41.333Z,73.40
2022-12-28T08:59:09.881Z,73.52
2022-12-28T09:01:44.250Z,73.38
2022-12-28T09:04:15.282Z,72.84
2022-12-28T09:06:44.755Z,72.48
2022-12-28T09:09:14.277Z,72.17
2022-12-28T09:11:42.904Z,72.20
2022-12-28T09:14:20.368Z,72.18
2022-12-28T09:16:51.348Z,72.09
2022-12-28T09:19:19.344Z,71.42
2022-12-28T09:21:49.436Z,71.22
2022-12-28T09:24:17.672Z,70.58
2022-12-28T09:26:45.781Z,70.88
2022-12-28T09:29:14.707Z,71.11
2022-12-28T09:31:44.341Z,70.42
2022-12-28T09:37:03.907Z,69.74
2022-12-28T09:39:31.806Z,69.72
2022-12-28T09:42:03.408Z,69.33
2022-12-28T09:44:37.965Z,68.26
2022-12-28T09:47:17.449Z,68.71
2022-12-28T09:49:54.575Z,67.74
2022-12-28T09:52:31.508Z,68.06
2022-12-28T09:55:08.240Z,68.35
2022-12-28T09:57:40.543Z,68.21
2022-12-28T10:00:17.275Z,68.74
2022-12-28T10:02:48.220Z,68.29
2022-12-28T10:05:17.134Z,68.26
2022-12-28T10:07:46.378Z,68.21
2022-12-28T10:10:18.458Z,67.58
2022-12-28T10:12:47.065Z,67.17
2022-12-28T10:15:15.686Z,67.47
2022-12-28T10:17:44.655Z,67.10
2022-12-28T10:20:17.932Z,68.19
2022-12-28T10:22:52.007Z,66.94
2022-12-28T10:25:23.488Z,67.13
2022-12-28T10:27:51.785Z,66.75
2022-12-28T10:30:24.025Z,66.90
2022-12-28T10:32:59.702Z,67.09
2022-12-28T10:35:34.903Z,66.98
2022-12-28T10:38:07.576Z,66.14
2022-12-28T10:40:39.371Z,66.04
2022-12-28T10:43:20.219Z,66.29
2022-12-28T10:45:50.355Z,66.24
2022-12-28T10:48:20.324Z,66.33
2022-12-28T10:50:52.423Z,65.48
2022-12-28T10:53:26.978Z,65.39
2022-12-28T10:56:07.562Z,65.35
2022-12-28T10:58:36.037Z,64.67
2022-12-28T11:01:19.625Z,64.61
2022-12-28T11:04:00.565Z,64.54
2022-12-28T11:06:29.944Z,64.57
2022-12-28T11:09:14.409Z,63.60
2022-12-28T11:11:43.426Z,63.22
2022-12-28T11:14:18.823Z,61.65
2022-12-28T11:16:46.712Z,61.04
2022-12-28T11:19:14.709Z,60.66
2022-12-28T11:21:44.202Z,60.57
2022-12-28T11:24:16.374Z,61.52
2022-12-28T11:26:45.890Z,61.61
2022-12-28T11:29:15.971Z,62.65
2022-12-28T11:31:47.229Z,63.28
2022-12-28T11:34:19.920Z,63.85
2022-12-28T11:36:50.931Z,63.60
2022-12-28T11:39:47.519Z,63.74
2022-12-28T11:43:03.172Z,63.64
2022-12-28T11:45:52.429Z,63.07
2022-12-28T11:48:40.188Z,62.77
2022-12-28T11:51:16.964Z,63.25
2022-12-28T11:53:57.974Z,62.79
2022-12-28T11:56:28.824Z,62.90
2022-12-28T11:59:21.707Z,62.97
2022-12-28T12:01:52.180Z,62.15
2022-12-28T12:04:42.184Z,62.00
2022-12-28T12:07:47.414Z,60.86
2022-12-28T12:10:36.983Z,60.94
2022-12-28T12:13:44.629Z,61.11
2022-12-28T12:16:30.078Z,61.27
2022-12-28T12:19:01.981Z,61.91
2022-12-28T12:21:36.866Z,62.20
2022-12-28T12:24:18.405Z,62.46
2022-12-28T12:26:52.628Z,62.49
2022-12-28T12:29:27.103Z,62.39
2022-12-28T12:32:01.139Z,62.55
2022-12-28T12:34:40.836Z,62.37
2022-12-28T12:37:37.093Z,61.70
2022-12-28T12:40:38.794Z,62.33
2022-12-28T12:43:27.845Z,62.12
2022-12-28T12:46:12.974Z,62.69
2022-12-28T12:49:08.211Z,62.58
2022-12-28T12:51:43.262Z,62.70
2022-12-28T12:54:27.106Z,62.45
2022-12-28T12:56:59.217Z,62.81
2022-12-28T13:00:02.873Z,62.58
2022-12-28T13:03:02.940Z,62.83
2022-12-28T13:05:32.242Z,63.21
2022-12-28T13:08:01.546Z,62.39
2022-12-28T13:10:33.620Z,62.85
2022-12-28T13:13:04.369Z,62.62
2022-12-28T13:15:32.987Z,62.79
2022-12-28T13:18:42.931Z,62.76
2022-12-28T13:20:57.343Z,62.57
2022-12-28T13:23:25.981Z,62.71
2022-12-28T13:25:56.037Z,62.91
2022-12-28T13:28:29.329Z,62.81
2022-12-28T13:31:02.469Z,63.16
2022-12-28T13:33:31.817Z,63.22
2022-12-28T13:36:12.727Z,63.54
2022-12-28T13:38:40.967Z,63.67
2022-12-28T13:41:21.435Z,63.39
2022-12-28T13:44:30.858Z,63.55
2022-12-28T13:47:03.838Z,63.46
2022-12-28T13:49:40.224Z,64.08
2022-12-28T13:52:12.449Z,64.15
2022-12-28T13:54:41.413Z,64.32
2022-12-28T13:57:44.464Z,64.52
2022-12-28T13:59:58.637Z,64.66
2022-12-28T14:02:29.166Z,65.08
2022-12-28T14:04:58.891Z,65.00
2022-12-28T14:07:31.439Z,64.57
2022-12-28T14:09:59.885Z,65.15
2022-12-28T14:12:28.206Z,65.49
2022-12-28T14:14:56.826Z,65.69
2022-12-28T14:17:25.754Z,65.68
2022-12-28T14:19:56.037Z,65.62
2022-12-28T14:22:30.221Z,65.94
2022-12-28T14:25:07.699Z,66.03
2022-12-28T14:27:39.352Z,65.93
2022-12-28T14:30:21.161Z,65.95
2022-12-28T14:32:49.558Z,66.02
2022-12-28T14:35:21.501Z,65.77
2022-12-28T14:37:55.116Z,65.93
2022-12-28T14:40:29.361Z,65.53
2022-12-28T14:42:58.120Z,66.14
2022-12-28T14:46:08.032Z,65.89
2022-12-28T14:48:40.427Z,65.65
2022-12-28T14:51:27.677Z,65.73
2022-12-28T14:54:20.413Z,65.69
2022-12-28T14:56:52.826Z,65.52
2022-12-28T14:59:27.536Z,65.67
2022-12-28T15:01:56.747Z,65.41
2022-12-28T15:04:37.739Z,65.21
2022-12-28T15:07:07.262Z,65.59
2022-12-28T15:09:37.574Z,65.01
2022-12-28T15:12:10.475Z,65.22
2022-12-28T15:14:38.468Z,65.17
2022-12-28T15:17:06.757Z,65.51
2022-12-28T15:19:34.733Z,65.39
2022-12-28T15:22:05.046Z,65.24
2022-12-28T15:24:36.977Z,65.41
2022-12-28T15:27:06.066Z,65.50
2022-12-28T15:32:21.906Z,65.17
2022-12-28T15:34:49.897Z,65.07
2022-12-28T15:37:17.815Z,65.20
2022-12-28T15:39:47.142Z,65.41
2022-12-28T15:42:14.953Z,65.00
2022-12-28T15:44:42.833Z,65.03
2022-12-28T15:47:11.352Z,64.76
2022-12-28T15:49:40.308Z,64.91
2022-12-28T15:52:08.238Z,64.62
2022-12-28T15:54:36.158Z,64.70
2022-12-28T15:57:05.376Z,64.12
2022-12-28T15:59:37.640Z,64.17
2022-12-28T16:02:05.567Z,64.62
2022-12-28T16:04:33.491Z,64.75
2022-12-28T16:07:01.286Z,64.64
2022-12-28T16:09:29.157Z,64.35
2022-12-28T16:11:57.061Z,64.57
2022-12-28T16:14:26.456Z,64.44
2022-12-28T16:16:54.390Z,64.34
2022-12-28T16:19:22.388Z,64.15
2022-12-28T16:21:56.068Z,65.39
2022-12-28T16:24:26.774Z,65.89
2022-12-28T16:26:54.702Z,65.17
2022-12-28T16:29:22.992Z,65.24
2022-12-28T16:31:55.185Z,64.35
2022-12-28T16:34:23.228Z,65.07
2022-12-28T16:36:56.862Z,64.43
2022-12-28T16:39:25.191Z,64.50
2022-12-28T16:41:59.365Z,64.45
2022-12-28T16:44:30.912Z,64.06
2022-12-28T16:47:01.445Z,63.93
2022-12-28T16:49:29.971Z,63.94
2022-12-28T16:51:58.527Z,63.42
2022-12-28T16:54:28.245Z,63.23
2022-12-28T16:56:56.204Z,63.04
2022-12-28T16:59:26.853Z,63.15
2022-12-28T17:01:56.107Z,62.84
2022-12-28T17:04:27.996Z,62.63
2022-12-28T17:06:55.929Z,62.36
2022-12-28T17:09:23.843Z,62.18
2022-12-28T17:11:52.038Z,62.29
2022-12-28T17:14:36.555Z,61.53
2022-12-28T17:17:05.446Z,61.73
2022-12-28T17:19:35.292Z,61.48
2022-12-28T17:22:04.064Z,61.76
2022-12-28T17:24:32.118Z,61.66
2022-12-28T17:27:06.759Z,61.56
2022-12-28T17:29:34.986Z,61.62
2022-12-28T17:32:02.933Z,61.83
2022-12-28T17:34:31.021Z,62.06
2022-12-28T17:37:00.316Z,61.32
2022-12-28T17:39:28.307Z,61.72
2022-12-28T17:41:56.322Z,61.94
2022-12-28T17:44:24.255Z,61.25
2022-12-28T17:46:52.178Z,61.06
2022-12-28T17:49:20.035Z,61.59
2022-12-28T17:51:47.831Z,61.79
2022-12-28T17:54:17.661Z,63.18
2022-12-28T17:56:45.558Z,64.13
2022-12-28T17:59:14.915Z,65.46
2022-12-28T18:01:43.106Z,66.02
2022-12-28T18:04:12.181Z,66.15
2022-12-28T18:06:40.309Z,66.36
2022-12-28T18:09:08.529Z,66.81
2022-12-28T18:11:37.700Z,67.22
2022-12-28T18:14:07.847Z,66.96
2022-12-28T18:16:35.917Z,67.45
2022-12-28T18:19:03.823Z,66.92
2022-12-28T18:21:31.630Z,66.60
2022-12-28T18:23:59.523Z,66.99
2022-12-28T18:26:28.310Z,66.73
2022-12-28T18:28:58.116Z,67.26
2022-12-28T18:31:26.457Z,66.74
2022-12-28T18:33:54.694Z,66.99
2022-12-28T18:36:22.708Z,67.10
2022-12-28T18:38:50.794Z,67.32
2022-12-28T18:41:20.892Z,67.26
2022-12-28T18:43:49.347Z,67.36
2022-12-28T18:46:18.808Z,67.78
2022-12-28T18:48:46.865Z,67.05
2022-12-28T18:51:17.456Z,66.93
2022-12-28T18:53:46.082Z,66.92
2022-12-28T18:56:16.274Z,67.04
2022-12-28T18:58:45.169Z,67.13
2022-12-28T19:01:40.112Z,67.43
2022-12-28T19:04:09.260Z,68.10
2022-12-28T19:06:38.146Z,67.44
2022-12-28T19:09:07.430Z,67.51
2022-12-28T19:11:35.688Z,68.46
2022-12-28T19:14:03.910Z,68.96
2022-12-28T19:16:32.413Z,69.10
2022-12-28T19:19:01.227Z,69.31
2022-12-28T19:21:32.226Z,69.68
2022-12-28T19:24:03.120Z,69.62
2022-12-28T19:26:32.744Z,69.84
2022-12-28T19:29:00.758Z,69.59
2022-12-28T19:31:29.034Z,69.91
2022-12-28T19:33:57.164Z,70.69
2022-12-28T19:36:25.574Z,70.20
2022-12-28T19:38:55.730Z,71.17
2022-12-28T19:41:23.649Z,71.21
2022-12-28T19:43:52.185Z,71.41
2022-12-28T19:46:22.705Z,70.88
2022-12-28T19:48:53.460Z,71.21
2022-12-28T19:51:25.781Z,71.25
2022-12-28T19:53:59.772Z,71.27
2022-12-28T19:56:27.720Z,71.20
2022-12-28T19:59:05.501Z,71.49
2022-12-28T20:01:36.688Z,71.58
2022-12-28T20:04:12.365Z,71.71
2022-12-28T20:06:41.854Z,71.88
2022-12-28T20:09:11.589Z,72.37
2022-12-28T20:11:40.523Z,71.89
2022-12-28T20:14:08.854Z,71.90
2022-12-28T20:16:36.897Z,72.02
2022-12-28T20:19:07.024Z,71.77
2022-12-28T20:21:36.412Z,72.33
2022-12-28T20:24:05.185Z,72.04
2022-12-28T20:26:35.147Z,72.73
2022-12-28T20:29:05.388Z,72.40
2022-12-28T20:31:33.492Z,72.20
2022-12-28T20:34:01.733Z,72.54
2022-12-28T20:36:31.837Z,72.62
2022-12-28T20:38:59.759Z,72.72
2022-12-28T20:41:48.873Z,72.80
2022-12-28T20:44:21.874Z,72.46
2022-12-28T20:46:49.900Z,72.10
2022-12-28T20:49:17.836Z,72.09
2022-12-28T20:51:46.952Z,72.76
2022-12-28T20:54:15.157Z,72.26
2022-12-28T20:56:43.851Z,71.19
2022-12-28T20:59:14.407Z,70.01
2022-12-28T21:01:44.602Z,69.45
2022-12-28T21:04:12.643Z,69.11
2022-12-28T21:06:43.110Z,69.34
2022-12-28T21:09:11.351Z,68.57
2022-12-28T21:11:39.229Z,68.56
2022-12-28T21:14:07.060Z,68.87
2022-12-28T21:16:35.197Z,68.39
2022-12-28T21:19:04.830Z,67.98
2022-12-28T21:21:32.724Z,67.99
2022-12-28T21:24:03.528Z,68.13
2022-12-28T21:26:31.461Z,68.14
2022-12-28T21:29:00.138Z,67.94
2022-12-28T21:31:28.100Z,67.48
2022-12-28T21:33:56.616Z,67.34
2022-12-28T21:36:27.233Z,67.61
2022-12-28T21:38:55.052Z,67.54
2022-12-28T21:41:37.498Z,67.20
2022-12-28T21:44:06.240Z,66.89
2022-12-28T21:46:35.613Z,67.27
2022-12-28T21:49:04.516Z,67.41
2022-12-28T21:51:35.941Z,67.34
2022-12-28T21:54:06.457Z,67.53
2022-12-28T21:56:35.622Z,67.31
2022-12-28T21:59:03.868Z,67.48
2022-12-28T22:01:49.625Z,67.30
2022-12-28T22:04:38.114Z,67.31
2022-12-28T22:07:09.035Z,67.06
2022-12-28T22:10:03.104Z,67.29
2022-12-28T22:12:37.157Z,66.94
2022-12-28T22:15:28.928Z,66.88
2022-12-28T22:17:58.661Z,66.99
2022-12-28T22:20:27.995Z,67.11
2022-12-28T22:22:58.919Z,67.52
2022-12-28T22:25:28.768Z,67.32
2022-12-28T22:28:00.320Z,67.45
2022-12-28T22:30:28.903Z,67.96
2022-12-28T22:32:56.840Z,67.72
2022-12-28T22:35:24.864Z,67.59
2022-12-28T22:37:55.005Z,67.33
2022-12-28T22:40:24.224Z,67.42
2022-12-28T22:42:52.112Z,67.72
2022-12-28T22:45:22.247Z,67.44
2022-12-28T22:47:50.400Z,67.14
2022-12-28T22:50:19.464Z,67.01
2022-12-28T22:52:47.637Z,67.03
2022-12-28T22:55:18.194Z,66.71
2022-12-28T22:57:47.638Z,66.04
2022-12-28T23:00:16.334Z,66.70
2022-12-28T23:02:44.711Z,66.42
2022-12-28T23:05:15.137Z,66.53
2022-12-28T23:07:43.141Z,66.36
2022-12-28T23:10:11.326Z,66.16
2022-12-28T23:12:39.368Z,65.89
2022-12-28T23:15:18.686Z,65.39
2022-12-28T23:17:47.917Z,65.80
2022-12-28T23:20:33.616Z,65.78
2022-12-28T23:23:18.853Z,65.50
2022-12-28T23:26:05.183Z,65.47
2022-12-28T23:28:36.308Z,65.52
2022-12-28T23:31:05.995Z,65.32
2022-12-28T23:33:34.168Z,65.26
2022-12-28T23:36:03.439Z,64.89
2022-12-28T23:38:32.453Z,64.72
2022-12-28T23:41:14.383Z,64.92
2022-12-28T23:43:42.259Z,64.76
2022-12-28T23:46:11.629Z,64.27
2022-12-28T23:48:39.693Z,64.34
2022-12-28T23:51:08.921Z,64.91
2022-12-28T23:53:36.963Z,64.38
2022-12-28T23:56:07.915Z,64.23
2022-12-28T23:58:35.886Z,64.24
